Weather observations for the past three days for
Enid, Enid Woodring Regional Airport
Imperial (Metric)
Date Time (cdt) Wind (mph) Vis. (mi.) Weather Sky Cond. Temperature (ºF) Relative Humidity Wind Chill (°F) Heat Index (°F) Pressure Precipitation (in)
Air Dwpt 6 hour altimeter (in) sea level (mb) 1 hr 3 hr 6 hr
Max. Min.
01 10:46 S 15 10.00 Fair CLR 93.2 62.6 36% 94 30.04 0.0
01 09:50 S 10 10.00 Fair CLR 89.6 60.8 38% 90 30.04 0.0
01 08:47 S 7 10.00 Fair CLR 80.6 60.8 51% 81 30.05 0.0
01 07:50 Calm 10.00 Fair CLR 73.4 60.8 65% 30.04 0.0
01 06:45 Calm 10.00 Fair CLR 68 59 73% 30.02 0.0
01 05:55 NE 5 10.00 Fair CLR 68 59 73% 30.01 0.0
01 05:35 Calm 10.00 Fair CLR 68 60.8 78% 29.99 0.0
01 05:15 Calm 10.00 Fair CLR 68 59 73% 29.99 0.0
01 04:55 Calm 10.00 Fair CLR 68 60.8 78% 29.99 0.0
01 04:35 Calm 10.00 Fair CLR 68 59 73% 29.99 0.0
01 04:15 Calm 10.00 Fair CLR 68 59 73% 29.99 0.0
01 03:55 Calm 10.00 Fair CLR 68 59 73% 29.98 0.0
01 03:35 Calm 10.00 Fair CLR 69.8 59 69% 29.98 0.0
01 03:15 Calm 10.00 Fair CLR 69.8 59 69% 29.98 0.0
01 02:55 Calm 10.00 Fair CLR 69.8 59 69% 29.97 0.0
01 02:35 Calm 10.00 Fair CLR 69.8 59 69% 29.97 0.0
01 02:15 Calm 10.00 Fair CLR 69.8 59 69% 29.98 0.0
01 01:55 Calm 10.00 Fair CLR 69.8 59 69% 29.98 0.0
01 01:35 Calm 10.00 Fair CLR 73.4 59 61% 29.98 0.0
01 01:15 S 3 10.00 Fair CLR 73.4 59 61% 29.98 0.0
01 00:55 SE 7 10.00 Fair CLR 73.4 59 61% 29.98 0.0
01 00:35 SE 6 10.00 Fair CLR 73.4 59 61% 29.98 0.0
01 00:15 S 5 10.00 Fair CLR 75.2 59 57% 78 29.98 0.0
31 23:55 Calm 10.00 Fair CLR 77 59 54% 79 29.98 0.0
31 23:35 E 6 10.00 Fair CLR 77 59 54% 79 29.97 0.0
31 23:15 S 6 10.00 Fair CLR 78.8 59 51% 80 29.97 0.0
31 22:55 S 7 10.00 Fair CLR 80.6 59 48% 81 29.96 0.0
31 22:35 N 8 10.00 Fair CLR 80.6 59 48% 81 29.96 0.0
31 22:15 SE 7 10.00 Fair CLR 80.6 59 48% 81 29.95 0.0
31 21:55 N 8 10.00 Fair CLR 80.6 59 48% 81 29.94 0.0
31 21:35 E 6 10.00 Fair CLR 82.4 59 45% 82 29.94 0.0
31 21:15 SE 8 10.00 Fair CLR 86 59 40% 85 29.93 0.0
31 20:50 SE 10 10.00 Clear SKC 89.6 57.2 33% 88 29.92 0.0
31 19:55 S 13 10.00 Clear SKC 93.2 57.2 30% 92 29.9 0.0
31 18:50 S 12 10.00 Clear SKC 98.6 57.2 25% 98 29.9 0.0
31 17:55 S 15 G 24 10.00 Partly Cloudy SCT100 102.2 57.2 23% 102 29.89 0.0
31 16:59 S 14 G 23 10.00 Partly Cloudy SCT100 104 59 23% 104 29.9 0.0
31 15:46 S 12 G 22 10.00 Partly Cloudy SCT120 104 60.8 24% 105 29.93 0.0
31 14:50 SE 15 G 24 10.00 Partly Cloudy SCT100 105.8 59 22% 107 29.94 0.0
31 13:47 S 16 G 22 10.00 Partly Cloudy SCT090 102.2 60.8 26% 103 29.95 0.0
31 12:45 S 16 G 22 10.00 Fair CLR 100.4 60.8 27% 101 29.98 0.0
31 11:50 S 16 G 26 10.00 Fair CLR 98.6 64.4 33% 101 30 0.0
31 10:47 S 13 G 22 10.00 Fair CLR 95 62.6 34% 96 29.99 0.0
31 09:45 S 18 10.00 Fair CLR 89.6 62.6 41% 90 30.01 0.0
31 08:55 S 12 10.00 Fair CLR 84.2 60.8 45% 84 30.01 0.0
31 07:45 SE 8 10.00 Fair CLR 73.4 60.8 65% 30 0.0
31 06:45 S 6 10.00 Fair CLR 69.8 59 69% 29.98 0.0
31 05:55 Calm 10.00 Fair CLR 69.8 60.8 73% 29.96 0.0
31 05:35 Calm 10.00 Fair CLR 71.6 60.8 69% 29.95 0.0
31 05:15 S 3 10.00 Fair CLR 69.8 60.8 73% 29.95 0.0
31 04:55 S 5 10.00 Fair CLR 71.6 60.8 69% 29.94 0.0
31 04:35 S 7 10.00 Fair CLR 71.6 60.8 69% 29.94 0.0
31 04:15 S 7 10.00 Fair CLR 71.6 60.8 69% 29.93 0.0
31 03:55 S 7 10.00 Fair CLR 73.4 60.8 65% 29.93 0.0
31 03:35 S 6 10.00 Fair CLR 73.4 59 61% 29.93 0.0
31 03:15 SW 3 10.00 Fair CLR 75.2 60.8 61% 77 29.93 0.0
31 02:55 S 5 10.00 Fair CLR 75.2 60.8 61% 77 29.93 0.0
31 02:35 S 6 10.00 Fair CLR 77 60.8 57% 79 29.93 0.0
31 02:15 S 5 10.00 Fair CLR 77 60.8 57% 79 29.93 0.0
31 01:55 S 5 10.00 Fair CLR 78.8 60.8 54% 80 29.93 0.0
31 01:35 S 6 10.00 Fair CLR 80.6 60.8 51% 81 29.92 0.0
31 01:15 S 8 10.00 Fair CLR 80.6 60.8 51% 81 29.92 0.0
31 00:55 S 7 10.00 Fair CLR 80.6 60.8 51% 81 29.92 0.0
31 00:35 S 8 10.00 Fair CLR 80.6 60.8 51% 81 29.91 0.0
31 00:15 S 8 10.00 Fair CLR 82.4 60.8 48% 83 29.91 0.0
30 23:55 S 8 10.00 Fair CLR 80.6 60.8 51% 81 29.9 0.0
30 23:35 S 8 10.00 Fair CLR 80.6 60.8 51% 81 29.9 0.0
30 23:15 S 8 10.00 Fair CLR 82.4 60.8 48% 83 29.9 0.0
30 22:55 SE 8 10.00 Fair CLR 82.4 59 45% 82 29.9 0.0
30 22:35 SE 8 10.00 Fair CLR 80.6 59 48% 81 29.89 0.0
30 22:15 E 7 10.00 Fair CLR 82.4 59 45% 82 29.89 0.0
30 21:55 SE 7 10.00 Fair CLR 82.4 59 45% 82 29.88 0.0
30 21:35 SE 6 10.00 Fair CLR 82.4 59 45% 82 29.88 0.0
30 21:15 S 7 10.00 Fair CLR 84.2 59 43% 84 29.87 0.0
30 20:55 SE 9 10.00 A Few Clouds FEW200 84.2 59 43% 84 29.86 0.0
30 19:50 S 10 10.00 A Few Clouds FEW200 95 59 30% 94 29.85 0.0
30 18:50 S 18 10.00 A Few Clouds FEW200 102.2 59 24% 102 29.84 0.0
30 17:59 S 16 G 24 10.00 Fair CLR 104 59 23% 104 29.84 0.0
30 16:50 S 18 G 28 10.00 Fair CLR 104 62.6 26% 107 29.84 0.0
30 15:45 S 15 G 28 10.00 Fair CLR 104 62.6 26% 107 29.86 0.0
30 14:45 S 17 G 29 10.00 Fair CLR 104 62.6 26% 107 29.88 0.0
30 13:45 SW 23 G 33 10.00 Fair and Breezy CLR 102.2 64.4 29% 106 29.9 0.0
30 12:50 S 22 G 30 10.00 Fair and Breezy CLR 102.2 64.4 29% 106 29.92 0.0
30 11:45 S 22 10.00 Fair and Breezy CLR 98.6 64.4 33% 101 29.95 0.0
30 10:50 S 22 G 29 10.00 Fair and Breezy CLR 96.8 64.4 34% 99 29.95 0.0
30 08:55 S 17 10.00 Fair CLR 84.2 62.6 48% 85 29.96 0.0
30 07:45 S 10 10.00 Fair CLR 77 60.8 57% 79 29.96 0.0
30 06:50 S 5 10.00 Fair CLR 75.2 60.8 61% 77 29.95 0.0
30 05:55 SE 6 10.00 Fair CLR 73.4 60.8 65% 29.93 0.0
30 05:35 S 6 10.00 Fair CLR 73.4 60.8 65% 29.94 0.0
30 05:15 S 8 10.00 Fair CLR 73.4 60.8 65% 29.93 0.0
30 04:55 S 7 10.00 Fair CLR 75.2 60.8 61% 77 29.93 0.0
30 04:35 S 7 10.00 Fair CLR 73.4 60.8 65% 29.93 0.0
30 04:15 S 7 10.00 Fair CLR 73.4 60.8 65% 29.93 0.0
30 03:55 S 6 10.00 Fair CLR 71.6 60.8 69% 29.92 0.0
30 03:35 S 5 10.00 Fair CLR 73.4 60.8 65% 29.92 0.0
30 03:15 S 6 10.00 Fair CLR 73.4 60.8 65% 29.92 0.0
30 02:55 S 7 10.00 Fair CLR 73.4 60.8 65% 29.92 0.0
30 02:35 S 6 10.00 Fair CLR 73.4 60.8 65% 29.92 0.0
30 02:15 S 6 10.00 Fair CLR 75.2 60.8 61% 77 29.92 0.0
30 01:55 S 7 10.00 Fair CLR 77 60.8 57% 79 29.92 0.0
30 01:35 S 7 10.00 Fair CLR 75.2 60.8 61% 77 29.92 0.0
30 01:15 S 7 10.00 Fair CLR 75.2 60.8 61% 77 29.93 0.0
30 00:55 S 6 10.00 Fair CLR 77 60.8 57% 79 29.93 0.0
30 00:35 S 7 10.00 Fair CLR 77 60.8 57% 79 29.92 0.0
30 00:15 S 6 10.00 Fair CLR 78.8 60.8 54% 80 29.93 0.0
29 23:55 NE 6 10.00 Fair CLR 78.8 60.8 54% 80 29.93 0.0
29 23:35 SE 7 10.00 Fair CLR 80.6 60.8 51% 81 29.93 0.0
29 23:15 SE 8 10.00 Fair CLR 80.6 59 48% 81 29.93 0.0
29 22:55 SE 8 10.00 Fair CLR 82.4 59 45% 82 29.92 0.0
29 22:35 SE 8 10.00 Fair CLR 82.4 59 45% 82 29.92 0.0
29 22:15 W 8 10.00 Fair CLR 82.4 59 45% 82 29.92 0.0
29 21:35 N 7 10.00 Fair CLR 82.4 59 45% 82 29.91 0.0
29 21:15 SE 8 10.00 Fair CLR 84.2 59 43% 84 29.89 0.0
29 20:45 SE 9 10.00 Fair CLR 87.8 57.2 35% 87 29.89 0.0
29 19:45 S 12 10.00 Fair CLR 93.2 57.2 30% 92 29.88 0.0
29 18:50 S 16 G 24 10.00 Fair CLR 98.6 57.2 25% 98 29.88 0.0
29 17:45 S 20 G 26 10.00 Fair CLR 102.2 57.2 23% 102 29.89 0.0
29 16:45 S 16 G 26 10.00 Fair CLR 102.2 57.2 23% 102 29.9 0.0
29 15:45 S 12 G 28 10.00 Fair CLR 104 55.4 20% 103 29.93 0.0
29 13:50 S 17 G 25 10.00 Partly Cloudy SCT150 100.4 60.8 27% 101 29.97 0.0
29 12:45 S 16 G 26 10.00 Partly Cloudy SCT160 100.4 60.8 27% 101 30 0.0
29 11:45 SW 18 10.00 Partly Cloudy SCT130 96.8 62.6 32% 98 30.02 0.0
Date Time (cdt) Wind (mph) Vis. (mi.) Weather Sky Cond. Air Dwpt Max. Min. Relative Humidity Wind Chill (°F) Heat Index (°F) altimeter (in) sea level (mb) 1 hr 3 hr 6 hr
6 hour
Temperature (ºF) Pressure Precipitation (in)